Time;durP1;ratioP1;P1;durP2;ratioP2;P2;SDS_P1;SDS_P2;PMS_P1;PMS_P2;Temp;Humidity;BMP_temperature;BMP_pressure;BME280_temperature;BME280_humidity;BME280_pressure;Samples;Min_cycle;Max_cycle;Signal;HPM_P1;HPM_P2
2021/06/13 00:00:44;;;;;;;24.38;11.43;;;17.80;62.50;;;;;;4960344;28;20058;-75
2021/06/13 00:03:10;;;;;;;28.27;11.88;;;17.70;63.80;;;;;;4960365;28;20031;-75
2021/06/13 00:05:38;;;;;;;23.77;10.68;;;17.70;63.60;;;;;;4960373;28;20031;-75
2021/06/13 00:08:04;;;;;;;28.98;11.07;;;17.70;63.30;;;;;;4960099;29;20412;-75
2021/06/13 00:10:30;;;;;;;21.45;10.85;;;17.70;63.10;;;;;;4960312;28;20098;-75
2021/06/13 00:12:55;;;;;;;23.13;10.65;;;17.60;62.80;;;;;;4948083;29;20110;-75
2021/06/13 00:15:24;;;;;;;25.30;11.43;;;17.60;63.50;;;;;;4960618;29;20023;-75
2021/06/13 00:17:52;;;;;;;27.25;12.35;;;17.60;64.80;;;;;;4960296;28;20042;-75
2021/06/13 00:20:22;;;;;;;24.95;11.20;;;17.50;63.70;;;;;;4960145;28;20023;-75
2021/06/13 00:22:49;;;;;;;20.98;11.05;;;17.50;63.00;;;;;;4959348;28;20557;-76
2021/06/13 00:25:15;;;;;;;27.67;12.93;;;17.50;63.50;;;;;;4960393;28;20122;-75
2021/06/13 00:27:41;;;;;;;27.08;13.43;;;17.50;64.70;;;;;;4960270;28;20043;-75
2021/06/13 00:30:10;;;;;;;32.55;12.68;;;17.40;64.60;;;;;;4960074;28;20027;-75
2021/06/13 00:32:36;;;;;;;26.35;11.95;;;17.40;63.90;;;;;;4960364;28;20023;-75
2021/06/13 00:35:03;;;;;;;23.75;11.25;;;17.40;63.90;;;;;;4959908;29;20163;-75
2021/06/13 00:37:30;;;;;;;25.73;12.93;;;17.40;64.10;;;;;;4959980;28;20110;-75
2021/06/13 00:39:56;;;;;;;32.28;12.35;;;17.40;66.10;;;;;;4950084;28;20033;-75
2021/06/13 00:42:22;;;;;;;26.70;12.48;;;17.20;64.90;;;;;;4960147;28;20086;-75
2021/06/13 00:44:48;;;;;;;26.83;13.32;;;17.20;65.10;;;;;;4959663;28;20498;-75
2021/06/13 00:47:14;;;;;;;25.45;11.75;;;17.20;64.40;;;;;;4959706;28;20053;-75
2021/06/13 00:49:40;;;;;;;27.27;13.50;;;17.10;65.40;;;;;;4960084;28;20027;-75
2021/06/13 00:52:06;;;;;;;30.77;13.10;;;17.10;65.90;;;;;;4959100;29;20023;-75
2021/06/13 00:54:32;;;;;;;28.73;12.90;;;17.00;66.40;;;;;;4959681;28;20015;-75
2021/06/13 00:56:58;;;;;;;31.27;13.68;;;17.00;66.80;;;;;;4959549;28;20038;-75
2021/06/13 00:59:24;;;;;;;33.10;13.95;;;17.00;66.60;;;;;;4959994;28;20027;-75
2021/06/13 01:01:50;;;;;;;30.38;13.55;;;17.00;66.80;;;;;;4959141;28;20066;-75
2021/06/13 01:04:15;;;;;;;28.17;12.70;;;17.00;66.00;;;;;;4958236;29;20031;-75
2021/06/13 01:06:56;;;;;;;28.30;11.73;;;16.80;65.70;;;;;;4959363;28;20039;-75
2021/06/13 01:09:28;;;;;;;26.70;11.82;;;16.80;65.50;;;;;;4959154;28;20568;-74
2021/06/13 01:12:25;;;;;;;25.30;11.32;;;16.90;64.60;;;;;;4959325;28;20114;-75
2021/06/13 01:15:05;;;;;;;22.08;12.25;;;16.90;64.20;;;;;;4955870;29;20031;-74
2021/06/13 01:17:42;;;;;;;27.75;12.00;;;16.90;64.60;;;;;;4958711;28;20031;-75
2021/06/13 01:20:34;;;;;;;29.83;12.23;;;16.90;64.10;;;;;;4959447;28;20058;-75
2021/06/13 01:23:35;;;;;;;29.45;11.77;;;16.90;64.60;;;;;;4959265;28;20039;-75
2021/06/13 01:26:36;;;;;;;29.80;13.40;;;16.90;63.20;;;;;;4950347;29;20114;-75
2021/06/13 01:29:18;;;;;;;29.83;13.60;;;16.90;65.20;;;;;;4927124;29;20039;-75
2021/06/13 01:31:52;;;;;;;23.73;11.70;;;16.80;64.40;;;;;;4953584;29;20033;-75
2021/06/13 01:34:38;;;;;;;25.75;12.10;;;16.80;63.20;;;;;;4958533;28;20031;-75
2021/06/13 01:37:08;;;;;;;27.27;11.20;;;16.80;62.40;;;;;;4946948;29;20031;-75
2021/06/13 01:39:38;;;;;;;26.98;12.25;;;16.80;62.70;;;;;;4958275;28;20114;-75
2021/06/13 01:42:04;;;;;;;27.88;13.30;;;16.80;62.50;;;;;;4959199;28;20130;-75
2021/06/13 01:44:32;;;;;;;25.30;12.18;;;16.80;65.80;;;;;;4958544;28;20039;-75
2021/06/13 01:47:01;;;;;;;35.90;13.85;;;16.70;65.90;;;;;;4958763;28;20082;-75
2021/06/13 01:49:29;;;;;;;26.60;12.07;;;16.70;64.80;;;;;;4959288;28;20042;-75
2021/06/13 01:51:55;;;;;;;32.08;13.30;;;16.70;66.80;;;;;;4958870;28;20039;-75
2021/06/13 01:54:21;;;;;;;32.63;14.00;;;16.60;67.80;;;;;;4958864;28;20485;-75
2021/06/13 01:56:51;;;;;;;23.88;11.25;;;16.60;66.60;;;;;;4958731;29;20023;-75
2021/06/13 01:59:18;;;;;;;29.38;12.73;;;16.60;65.40;;;;;;4958737;28;20083;-75
2021/06/13 02:01:46;;;;;;;31.55;12.63;;;16.60;66.40;;;;;;4957426;29;20375;-75
2021/06/13 02:04:13;;;;;;;36.28;14.30;;;16.60;66.70;;;;;;4958902;28;20383;-75
2021/06/13 02:06:49;;;;;;;27.95;12.70;;;16.60;66.70;;;;;;4957870;28;20038;-75
2021/06/13 02:09:20;;;;;;;25.02;11.32;;;16.60;65.80;;;;;;4958263;28;20039;-75
2021/06/13 02:11:46;;;;;;;30.48;14.32;;;16.50;66.10;;;;;;4958150;28;20106;-75
2021/06/13 02:14:13;;;;;;;31.55;13.98;;;16.50;64.20;;;;;;4957326;29;20040;-75
2021/06/13 02:16:42;;;;;;;30.00;14.35;;;16.50;66.40;;;;;;4958768;28;20027;-75
2021/06/13 02:19:09;;;;;;;25.75;13.10;;;16.50;65.70;;;;;;4958656;28;20019;-75
2021/06/13 02:21:35;;;;;;;24.92;11.93;;;16.50;65.60;;;;;;4956251;29;20094;-74
2021/06/13 02:24:02;;;;;;;25.83;12.75;;;16.50;64.20;;;;;;4958695;28;20028;-75
2021/06/13 02:26:29;;;;;;;30.88;14.07;;;16.50;64.80;;;;;;4958803;28;20154;-75
2021/06/13 02:28:58;;;;;;;37.67;14.75;;;16.40;66.50;;;;;;4958491;28;20050;-74
2021/06/13 02:31:29;;;;;;;33.60;12.70;;;16.40;66.80;;;;;;4958766;28;20024;-74
2021/06/13 02:33:55;;;;;;;29.92;13.18;;;16.40;65.90;;;;;;4958453;28;20027;-74
2021/06/13 02:36:23;;;;;;;28.35;13.65;;;16.40;66.00;;;;;;4958425;28;20026;-75
2021/06/13 02:38:51;;;;;;;32.05;14.55;;;16.40;66.30;;;;;;4956942;28;20028;-74
2021/06/13 02:41:17;;;;;;;31.17;13.73;;;16.30;68.00;;;;;;4958480;28;20054;-75
2021/06/13 02:43:44;;;;;;;30.23;14.40;;;16.30;67.20;;;;;;4958453;28;20031;-74
2021/06/13 02:46:09;;;;;;;29.40;14.43;;;16.30;68.10;;;;;;4961008;28;20034;-74
2021/06/13 02:48:35;;;;;;;30.95;13.35;;;16.30;68.20;;;;;;4949562;29;20031;-74
2021/06/13 02:51:01;;;;;;;35.10;15.00;;;16.30;66.70;;;;;;4961838;28;20058;-74
2021/06/13 02:53:42;;;;;;;34.70;15.75;;;16.30;68.00;;;;;;4962311;28;20027;-75
2021/06/13 02:56:36;;;;;;;35.40;14.02;;;16.20;68.30;;;;;;4961540;28;20039;-74
2021/06/13 02:59:30;;;;;;;31.85;13.60;;;16.20;67.90;;;;;;4955374;29;20028;-75
2021/06/13 03:01:58;;;;;;;28.85;14.20;;;16.20;68.50;;;;;;4959298;29;20486;-74
2021/06/13 03:04:24;;;;;;;33.22;14.30;;;16.10;68.40;;;;;;4961828;28;20123;-74
2021/06/13 03:06:55;;;;;;;30.38;14.23;;;16.10;67.50;;;;;;4961100;28;20035;-74
2021/06/13 03:09:23;;;;;;;28.70;13.18;;;16.10;66.60;;;;;;4961142;28;20054;-75
2021/06/13 03:11:50;;;;;;;29.50;12.80;;;16.10;66.10;;;;;;4961039;28;20517;-75
2021/06/13 03:14:16;;;;;;;33.90;13.70;;;16.10;66.30;;;;;;4961322;28;20027;-75
2021/06/13 03:16:45;;;;;;;29.55;13.23;;;16.10;67.50;;;;;;4960231;29;20035;-75
2021/06/13 03:19:12;;;;;;;29.20;13.75;;;16.10;67.80;;;;;;4961328;28;20372;-75
2021/06/13 03:21:39;;;;;;;31.35;12.07;;;16.00;67.40;;;;;;4960057;28;20027;-75
2021/06/13 03:24:07;;;;;;;30.48;12.13;;;16.00;67.20;;;;;;4961244;28;20077;-75
2021/06/13 03:26:35;;;;;;;28.65;12.75;;;16.00;66.20;;;;;;4960627;28;20538;-75
2021/06/13 03:29:01;;;;;;;23.40;11.20;;;16.00;65.10;;;;;;4961273;28;20055;-75
2021/06/13 03:31:28;;;;;;;26.77;12.52;;;16.00;64.80;;;;;;4960900;28;20023;-75
2021/06/13 03:33:54;;;;;;;27.65;12.57;;;16.00;66.20;;;;;;4960678;28;20462;-75
2021/06/13 03:36:22;;;;;;;35.20;14.73;;;16.00;66.50;;;;;;4960664;29;20556;-75
2021/06/13 03:38:50;;;;;;;30.15;13.13;;;15.90;68.70;;;;;;4960703;28;20462;-75
2021/06/13 03:41:18;;;;;;;27.13;13.13;;;15.90;68.60;;;;;;4960943;28;20078;-75
2021/06/13 03:43:45;;;;;;;30.25;12.27;;;15.90;66.90;;;;;;4960748;28;20037;-75
2021/06/13 03:46:11;;;;;;;36.30;14.45;;;15.90;67.60;;;;;;4960726;28;20023;-75
2021/06/13 03:48:37;;;;;;;32.60;13.13;;;15.80;68.00;;;;;;4961062;28;20078;-75
2021/06/13 03:51:04;;;;;;;27.00;13.32;;;15.80;67.80;;;;;;4960945;28;20083;-75
2021/06/13 03:53:30;;;;;;;32.65;13.40;;;15.80;66.20;;;;;;4957492;29;20027;-75
2021/06/13 03:56:04;;;;;;;37.35;14.50;;;15.80;67.30;;;;;;4959635;28;20035;-75
2021/06/13 03:58:31;;;;;;;34.25;13.70;;;15.80;68.20;;;;;;4944720;29;20031;-75
2021/06/13 04:00:58;;;;;;;29.35;13.02;;;15.80;67.70;;;;;;4954347;29;20058;-75
2021/06/13 04:03:26;;;;;;;28.88;11.82;;;15.70;68.10;;;;;;4960694;28;20035;-75
2021/06/13 04:05:52;;;;;;;30.33;13.20;;;15.70;66.60;;;;;;4960576;28;20390;-75
2021/06/13 04:08:20;;;;;;;30.33;12.38;;;15.70;68.70;;;;;;4952532;28;20156;-75
2021/06/13 04:10:50;;;;;;;30.85;12.70;;;15.70;66.70;;;;;;4955575;29;20074;-75
2021/06/13 04:13:17;;;;;;;34.45;14.00;;;15.70;67.30;;;;;;4960387;28;20031;-75
2021/06/13 04:15:44;;;;;;;27.05;12.63;;;15.70;68.40;;;;;;4959728;28;20130;-75
2021/06/13 04:18:11;;;;;;;27.80;13.35;;;15.60;66.60;;;;;;4960400;28;20023;-75
2021/06/13 04:20:38;;;;;;;24.65;10.55;;;15.70;66.20;;;;;;4959609;28;20083;-75
2021/06/13 04:23:05;;;;;;;22.13;11.02;;;15.70;65.20;;;;;;4957734;29;20027;-74
2021/06/13 04:25:31;;;;;;;29.95;11.70;;;15.70;65.00;;;;;;4947335;28;20028;-75
2021/06/13 04:27:59;;;;;;;30.40;13.23;;;15.60;65.90;;;;;;4958333;28;20118;-75
2021/06/13 04:30:25;;;;;;;30.60;12.52;;;15.60;67.10;;;;;;4958531;29;20054;-75
2021/06/13 04:32:51;;;;;;;33.70;14.00;;;15.60;65.40;;;;;;4960053;29;20070;-75
2021/06/13 04:35:17;;;;;;;29.45;13.55;;;15.60;67.70;;;;;;4959963;28;20497;-74
2021/06/13 04:37:43;;;;;;;26.95;12.25;;;15.60;66.10;;;;;;4959673;28;20046;-75
2021/06/13 04:40:10;;;;;;;30.48;12.88;;;15.60;65.00;;;;;;4959897;28;20035;-75
2021/06/13 04:42:36;;;;;;;24.48;11.18;;;15.60;64.80;;;;;;4959716;28;20053;-75
2021/06/13 04:45:08;;;;;;;23.63;10.65;;;15.60;64.00;;;;;;4959772;28;20031;-75
2021/06/13 04:47:35;;;;;;;25.20;10.82;;;15.60;63.60;;;;;;4959691;28;20041;-75
2021/06/13 04:50:02;;;;;;;21.83;10.68;;;15.60;63.40;;;;;;4959609;28;20027;-75
2021/06/13 04:52:30;;;;;;;23.15;10.48;;;15.60;63.60;;;;;;4959953;28;20028;-74
2021/06/13 04:54:56;;;;;;;37.53;13.55;;;15.60;63.70;;;;;;4956098;28;20023;-74
2021/06/13 04:57:24;;;;;;;25.08;11.07;;;15.60;65.80;;;;;;4958478;29;20059;-75
2021/06/13 04:59:50;;;;;;;20.73;10.82;;;15.60;64.30;;;;;;4958834;29;20027;-74
2021/06/13 05:02:16;;;;;;;24.23;11.18;;;15.60;64.70;;;;;;4959441;28;20110;-74
2021/06/13 05:04:43;;;;;;;22.77;10.45;;;15.60;63.90;;;;;;4959460;28;20035;-74
2021/06/13 05:07:08;;;;;;;19.85;10.32;;;15.60;63.40;;;;;;4958852;28;20036;-74
2021/06/13 05:09:34;;;;;;;17.35;9.30;;;15.60;63.00;;;;;;4958467;28;20031;-75
2021/06/13 05:12:00;;;;;;;17.13;8.32;;;15.60;63.00;;;;;;4959460;29;20501;-74
2021/06/13 05:14:26;;;;;;;16.23;9.13;;;15.60;62.70;;;;;;4958760;29;20023;-74
2021/06/13 05:16:52;;;;;;;20.70;9.73;;;15.60;62.50;;;;;;4959285;28;20035;-74
2021/06/13 05:19:18;;;;;;;17.85;8.20;;;15.60;62.30;;;;;;4953910;29;20105;-74
2021/06/13 05:21:43;;;;;;;17.48;8.68;;;15.60;62.30;;;;;;4954564;29;20023;-75
2021/06/13 05:24:09;;;;;;;16.50;8.88;;;15.60;63.10;;;;;;4958940;28;20042;-74
2021/06/13 05:26:36;;;;;;;14.95;8.38;;;15.60;63.20;;;;;;4958574;28;20027;-74
2021/06/13 05:29:02;;;;;;;21.23;9.80;;;15.60;63.60;;;;;;4958951;28;20418;-75
2021/06/13 05:31:28;;;;;;;16.35;8.88;;;15.60;62.70;;;;;;4957405;29;20023;-74
2021/06/13 05:33:54;;;;;;;23.92;9.60;;;15.60;62.60;;;;;;4956095;29;20046;-74
2021/06/13 05:36:20;;;;;;;17.77;8.27;;;15.60;62.90;;;;;;4959207;28;20028;-75
2021/06/13 05:38:46;;;;;;;16.83;8.55;;;15.70;63.60;;;;;;4958909;29;20027;-75
2021/06/13 05:41:13;;;;;;;16.83;8.57;;;15.70;63.70;;;;;;4958217;28;20069;-74
2021/06/13 05:43:40;;;;;;;23.73;9.73;;;15.70;62.90;;;;;;4958906;29;20042;-74
2021/06/13 05:46:07;;;;;;;19.10;8.52;;;15.70;65.00;;;;;;4957631;29;20030;-75
2021/06/13 05:48:33;;;;;;;19.10;8.90;;;15.70;63.50;;;;;;4958732;28;20038;-75
2021/06/13 05:51:03;;;;;;;15.93;8.93;;;15.70;63.30;;;;;;4953793;29;20031;-75
2021/06/13 05:53:29;;;;;;;14.88;9.18;;;15.80;63.20;;;;;;4957817;29;20054;-76
2021/06/13 05:55:55;;;;;;;18.15;8.57;;;15.80;63.20;;;;;;4957281;28;20486;-74
2021/06/13 05:58:21;;;;;;;15.80;8.18;;;15.80;64.10;;;;;;4951593;29;20084;-75
2021/06/13 06:00:48;;;;;;;20.52;10.07;;;15.80;63.40;;;;;;4958720;28;20078;-76
2021/06/13 06:03:14;;;;;;;21.02;10.40;;;15.90;64.50;;;;;;4958984;28;20106;-77
2021/06/13 06:05:40;;;;;;;19.85;9.13;;;15.90;64.40;;;;;;4958550;28;20027;-76
2021/06/13 06:08:06;;;;;;;16.38;9.50;;;15.90;64.20;;;;;;4959087;28;20023;-76
2021/06/13 06:10:35;;;;;;;20.58;9.90;;;16.00;64.70;;;;;;4957629;29;20055;-76
2021/06/13 06:13:03;;;;;;;19.23;9.57;;;16.00;65.60;;;;;;4958084;28;20028;-76
2021/06/13 06:15:37;;;;;;;22.20;9.75;;;16.00;65.10;;;;;;4957222;28;20031;-76
2021/06/13 06:18:04;;;;;;;20.30;10.98;;;16.00;68.00;;;;;;4958088;29;20034;-76
2021/06/13 06:20:32;;;;;;;21.50;9.48;;;16.10;67.20;;;;;;4961750;28;20034;-76
2021/06/13 06:22:58;;;;;;;16.35;9.00;;;16.10;66.90;;;;;;4961438;29;20039;-76
2021/06/13 06:25:25;;;;;;;23.48;10.95;;;16.10;66.70;;;;;;4962818;28;20030;-76
2021/06/13 06:27:52;;;;;;;19.33;10.80;;;16.20;66.90;;;;;;4962317;28;20027;-76
2021/06/13 06:30:19;;;;;;;21.30;10.15;;;16.20;67.60;;;;;;4962521;28;20094;-76
2021/06/13 06:32:46;;;;;;;23.08;10.80;;;16.20;67.20;;;;;;4962576;28;20488;-76
2021/06/13 06:35:13;;;;;;;18.90;9.27;;;16.30;67.00;;;;;;4961133;28;20028;-76
2021/06/13 06:37:41;;;;;;;23.52;10.35;;;16.30;68.90;;;;;;4962262;28;20089;-76
2021/06/13 06:40:08;;;;;;;21.38;9.85;;;16.30;68.00;;;;;;4961892;28;20106;-76
2021/06/13 06:42:34;;;;;;;24.02;10.65;;;16.50;69.40;;;;;;4962103;28;20118;-76
2021/06/13 06:45:00;;;;;;;22.92;10.38;;;16.50;68.60;;;;;;4962230;28;20023;-77
2021/06/13 06:47:27;;;;;;;22.27;10.63;;;16.60;68.90;;;;;;4961041;28;20043;-76
2021/06/13 06:49:52;;;;;;;20.38;10.68;;;16.80;69.30;;;;;;4961605;28;20040;-76
2021/06/13 06:52:18;;;;;;;21.08;9.60;;;16.90;69.10;;;;;;4961682;28;20027;-75
2021/06/13 06:54:45;;;;;;;17.50;10.85;;;17.20;69.90;;;;;;4961082;28;20023;-76
2021/06/13 06:57:11;;;;;;;18.95;9.52;;;17.60;70.20;;;;;;4960470;28;20054;-76
2021/06/13 06:59:37;;;;;;;16.05;9.68;;;17.90;70.40;;;;;;4960598;28;20482;-77
2021/06/13 07:02:03;;;;;;;15.70;8.80;;;18.40;70.40;;;;;;4960894;29;20027;-73
2021/06/13 07:04:30;;;;;;;19.33;10.98;;;18.90;70.90;;;;;;4958903;28;20035;-73
2021/06/13 07:06:56;;;;;;;16.90;9.40;;;19.40;70.90;;;;;;4961392;29;20031;-72
2021/06/13 07:09:22;;;;;;;15.25;8.90;;;20.00;68.30;;;;;;4960964;29;20477;-71
2021/06/13 07:11:47;;;;;;;16.83;8.63;;;20.60;69.80;;;;;;4961447;29;20023;-72
2021/06/13 07:14:13;;;;;;;15.43;7.93;;;21.10;68.70;;;;;;4960437;29;20514;-72
2021/06/13 07:16:39;;;;;;;13.45;8.48;;;21.60;67.30;;;;;;4961546;28;20031;-72
2021/06/13 07:19:05;;;;;;;13.35;8.93;;;22.10;66.30;;;;;;4960561;29;20035;-72
2021/06/13 07:21:31;;;;;;;13.88;7.45;;;22.60;65.00;;;;;;4961212;28;20035;-74
2021/06/13 07:23:57;;;;;;;12.15;7.65;;;23.00;67.30;;;;;;4961398;29;20015;-74
2021/06/13 07:26:23;;;;;;;13.63;7.90;;;23.50;67.40;;;;;;4961310;28;20027;-74
2021/06/13 07:28:49;;;;;;;13.65;7.72;;;24.00;65.50;;;;;;4960701;28;20028;-74
2021/06/13 07:31:15;;;;;;;11.65;6.95;;;24.40;65.80;;;;;;4960293;28;20027;-74
2021/06/13 07:33:40;;;;;;;11.60;7.40;;;24.80;65.80;;;;;;4960353;29;20043;-74
2021/06/13 07:36:08;;;;;;;14.98;7.07;;;25.30;63.50;;;;;;4961391;28;20035;-74
2021/06/13 07:38:34;;;;;;;10.82;6.90;;;25.70;63.80;;;;;;4960589;28;20023;-74
2021/06/13 07:41:00;;;;;;;11.48;7.28;;;26.00;61.90;;;;;;4960852;29;20052;-74
2021/06/13 07:43:26;;;;;;;11.73;7.00;;;26.30;60.90;;;;;;4961114;29;20051;-74
2021/06/13 07:45:52;;;;;;;11.68;7.68;;;26.70;62.40;;;;;;4961125;29;20058;-75
2021/06/13 07:48:19;;;;;;;10.15;7.40;;;27.00;61.10;;;;;;4960881;28;20023;-75
2021/06/13 07:50:45;;;;;;;11.43;7.57;;;27.40;61.20;;;;;;4960737;29;20031;-75
2021/06/13 07:53:11;;;;;;;10.15;6.85;;;27.70;60.70;;;;;;4960963;28;20484;-75
2021/06/13 07:55:38;;;;;;;11.35;7.15;;;28.00;58.00;;;;;;4960100;28;20034;-75
2021/06/13 07:58:04;;;;;;;11.35;7.63;;;28.30;58.20;;;;;;4960797;28;20019;-75
2021/06/13 08:00:30;;;;;;;11.32;6.63;;;28.50;58.70;;;;;;4960019;28;20147;-74
2021/06/13 08:02:56;;;;;;;10.45;7.32;;;28.80;58.00;;;;;;4959493;28;20051;-73
2021/06/13 08:05:26;;;;;;;11.70;7.55;;;29.00;55.70;;;;;;4960524;28;20035;-73
2021/06/13 08:07:59;;;;;;;12.40;7.55;;;29.20;57.00;;;;;;4959833;28;20062;-74
2021/06/13 08:10:26;;;;;;;12.93;6.85;;;29.40;55.80;;;;;;4960193;28;20035;-74
2021/06/13 08:12:52;;;;;;;8.93;6.68;;;29.70;56.50;;;;;;4958945;29;20094;-74
2021/06/13 08:15:19;;;;;;;12.15;7.38;;;29.90;55.10;;;;;;4960262;28;20086;-75
2021/06/13 08:17:45;;;;;;;10.05;6.78;;;30.20;55.40;;;;;;4960107;28;20031;-74
2021/06/13 08:20:12;;;;;;;12.05;7.68;;;30.40;53.40;;;;;;4960221;28;20039;-75
2021/06/13 08:22:38;;;;;;;9.65;6.72;;;30.60;53.50;;;;;;4960373;28;20027;-75
2021/06/13 08:25:04;;;;;;;10.20;7.38;;;30.80;53.40;;;;;;4959663;28;20039;-75
2021/06/13 08:27:30;;;;;;;10.23;6.53;;;31.20;51.30;;;;;;4960620;29;20031;-75
2021/06/13 08:29:58;;;;;;;11.82;6.72;;;31.30;53.30;;;;;;4959783;29;20115;-75
2021/06/13 08:32:25;;;;;;;12.23;6.32;;;31.50;53.80;;;;;;4960178;28;20038;-75
2021/06/13 08:34:51;;;;;;;9.85;6.50;;;31.80;54.10;;;;;;4959079;28;20490;-75
2021/06/13 08:37:17;;;;;;;11.38;7.05;;;32.10;52.80;;;;;;4958434;29;20090;-76
2021/06/13 08:39:43;;;;;;;12.45;6.20;;;32.30;51.40;;;;;;4959481;28;20027;-76
2021/06/13 08:42:09;;;;;;;11.45;7.18;;;32.60;52.00;;;;;;4959952;28;20035;-75
2021/06/13 08:44:35;;;;;;;8.35;6.65;;;32.80;49.80;;;;;;4960107;29;20039;-76
2021/06/13 08:47:03;;;;;;;9.68;6.18;;;33.00;50.50;;;;;;4959853;29;20038;-76
2021/06/13 08:49:29;;;;;;;11.18;6.93;;;33.30;50.70;;;;;;4959738;28;20038;-76
2021/06/13 08:51:55;;;;;;;9.15;6.75;;;33.50;48.90;;;;;;4959148;28;20027;-75
2021/06/13 08:54:22;;;;;;;10.90;7.40;;;33.70;49.70;;;;;;4959596;28;20031;-75
2021/06/13 08:56:48;;;;;;;10.98;6.40;;;33.90;48.80;;;;;;4958999;28;20031;-75
2021/06/13 08:59:14;;;;;;;9.80;6.60;;;34.10;48.90;;;;;;4956447;28;20059;-76
2021/06/13 09:01:41;;;;;;;9.23;6.70;;;34.30;46.40;;;;;;4959605;29;20015;-76
2021/06/13 09:04:07;;;;;;;10.55;7.07;;;34.50;47.60;;;;;;4959675;28;20033;-77
2021/06/13 09:06:34;;;;;;;8.68;6.38;;;34.70;49.10;;;;;;4959808;28;20106;-78
2021/06/13 09:09:00;;;;;;;8.48;6.70;;;34.90;48.50;;;;;;4959545;28;20098;-77
2021/06/13 09:11:33;;;;;;;10.68;6.50;;;35.10;48.30;;;;;;4959937;29;20058;-76
2021/06/13 09:14:14;;;;;;;8.63;6.30;;;35.30;47.10;;;;;;4958353;29;20027;-76
2021/06/13 09:16:45;;;;;;;9.32;6.35;;;35.50;47.30;;;;;;4959468;28;20566;-76
2021/06/13 09:19:11;;;;;;;8.88;5.93;;;35.80;48.00;;;;;;4959305;28;20059;-74
2021/06/13 09:21:39;;;;;;;9.35;6.90;;;36.10;47.50;;;;;;4959049;28;20425;-75
2021/06/13 09:24:22;;;;;;;10.00;6.25;;;36.40;46.90;;;;;;4959365;28;20023;-75
2021/06/13 09:26:49;;;;;;;11.32;7.32;;;36.70;46.30;;;;;;4958816;28;20054;-75
2021/06/13 09:29:15;;;;;;;10.23;6.65;;;36.90;45.20;;;;;;4959404;28;20061;-75
2021/06/13 09:31:41;;;;;;;9.20;6.18;;;37.10;44.90;;;;;;4959353;29;20106;-75
2021/06/13 09:34:14;;;;;;;8.27;6.32;;;37.30;45.60;;;;;;4959074;28;20023;-71
2021/06/13 09:36:41;;;;;;;8.00;6.43;;;37.50;44.10;;;;;;4958241;28;20038;-71
2021/06/13 09:39:10;;;;;;;10.10;6.30;;;37.60;43.00;;;;;;4958903;28;20108;-74
2021/06/13 09:41:41;;;;;;;8.10;5.80;;;37.80;43.20;;;;;;4958126;28;20066;-76
2021/06/13 09:44:17;;;;;;;7.30;5.93;;;38.00;45.10;;;;;;4958517;28;20113;-75
2021/06/13 09:46:45;;;;;;;7.07;5.70;;;38.30;45.30;;;;;;4959163;29;20023;-77
2021/06/13 09:49:16;;;;;;;9.18;6.43;;;38.50;43.70;;;;;;4958599;28;20118;-74
2021/06/13 09:51:52;;;;;;;6.82;5.45;;;38.80;43.20;;;;;;4958696;28;20087;-75
2021/06/13 09:54:24;;;;;;;7.75;6.35;;;39.00;43.00;;;;;;4957321;29;20030;-75
2021/06/13 09:56:50;;;;;;;9.65;6.50;;;39.30;42.90;;;;;;4958853;28;20042;-75
2021/06/13 09:59:22;;;;;;;8.75;6.65;;;39.50;41.70;;;;;;4957859;29;20024;-76
2021/06/13 10:01:52;;;;;;;8.30;5.85;;;39.70;42.10;;;;;;4958918;28;20106;-77
2021/06/13 10:04:18;;;;;;;29.35;26.48;;;39.90;42.30;;;;;;4959182;28;20019;-72
2021/06/13 10:06:49;;;;;;;9.80;7.35;;;40.20;41.90;;;;;;4958268;28;20043;-73
2021/06/13 10:09:16;;;;;;;7.13;6.05;;;40.50;41.50;;;;;;4949699;28;20027;-79
2021/06/13 10:11:43;;;;;;;6.57;5.47;;;40.70;41.30;;;;;;4958381;29;20035;-77
2021/06/13 10:14:11;;;;;;;16.20;10.40;;;40.90;40.40;;;;;;4958906;28;20091;-77
2021/06/13 10:16:39;;;;;;;70.28;47.58;;;41.10;40.50;;;;;;4946042;29;20031;-81
2021/06/13 10:19:18;;;;;;;17.85;15.02;;;41.40;40.00;;;;;;4958851;28;20058;-79
2021/06/13 10:21:56;;;;;;;10.23;8.27;;;41.50;39.80;;;;;;4958995;28;20107;-77
2021/06/13 10:24:23;;;;;;;6.68;5.20;;;41.70;38.80;;;;;;4958621;28;20024;-79
2021/06/13 10:26:54;;;;;;;7.13;4.95;;;41.90;37.80;;;;;;4959262;28;20026;-80
2021/06/13 10:29:22;;;;;;;8.35;5.95;;;42.00;38.00;;;;;;4958812;28;20031;-81
2021/06/13 10:31:51;;;;;;;11.35;8.68;;;42.00;37.80;;;;;;4958944;28;20027;-79
2021/06/13 10:34:18;;;;;;;18.23;14.73;;;42.20;38.40;;;;;;4958316;28;20031;-74
2021/06/13 10:36:45;;;;;;;20.70;18.58;;;42.20;38.60;;;;;;4957832;28;20478;-75
2021/06/13 10:39:13;;;;;;;210.55;189.13;;;42.40;39.00;;;;;;4958276;28;20024;-74
2021/06/13 10:41:40;;;;;;;63.75;56.80;;;42.60;37.00;;;;;;4956970;28;20047;-74
2021/06/13 10:44:11;;;;;;;28.92;25.83;;;42.70;36.00;;;;;;4958752;28;20031;-75
2021/06/13 10:46:43;;;;;;;6.38;4.65;;;42.70;36.70;;;;;;4958569;28;20031;-77
2021/06/13 10:49:27;;;;;;;8.15;6.28;;;42.70;35.70;;;;;;4957270;28;20537;-76
2021/06/13 10:52:16;;;;;;;8.45;6.40;;;42.60;35.90;;;;;;4956647;29;20058;-78
2021/06/13 10:54:51;;;;;;;6.35;4.10;;;42.50;35.40;;;;;;4956387;29;20051;-76
2021/06/13 10:57:17;;;;;;;6.82;4.70;;;42.50;36.30;;;;;;4955860;28;20039;-77
2021/06/13 10:59:49;;;;;;;5.97;4.43;;;42.50;37.30;;;;;;4958745;29;20061;-76
2021/06/13 11:02:22;;;;;;;8.20;5.20;;;42.50;34.90;;;;;;4958339;28;20039;-77
2021/06/13 11:04:53;;;;;;;6.07;4.28;;;42.50;36.90;;;;;;4958538;28;20027;-77
2021/06/13 11:07:34;;;;;;;6.20;4.97;;;42.60;36.70;;;;;;4960848;28;20028;-78
2021/06/13 11:10:06;;;;;;;7.45;5.30;;;42.60;37.00;;;;;;4961601;28;20041;-78
2021/06/13 11:12:58;;;;;;;8.73;7.28;;;42.60;36.00;;;;;;4961129;29;20027;-78
2021/06/13 11:15:39;;;;;;;5.75;4.25;;;42.60;36.70;;;;;;4961376;28;20024;-76
2021/06/13 11:18:25;;;;;;;6.77;5.53;;;42.60;36.60;;;;;;4960852;28;20108;-76
2021/06/13 11:21:01;;;;;;;9.60;6.78;;;42.60;37.00;;;;;;4961596;28;20382;-75
2021/06/13 11:23:27;;;;;;;6.95;4.20;;;42.70;34.30;;;;;;4958980;29;20033;-76
2021/06/13 11:25:58;;;;;;;5.53;4.30;;;42.60;35.00;;;;;;4953537;29;20035;-76
2021/06/13 11:28:48;;;;;;;6.03;4.05;;;42.50;35.80;;;;;;4960173;29;20031;-77
2021/06/13 11:31:14;;;;;;;5.20;3.97;;;42.40;33.40;;;;;;4954615;28;20055;-77
2021/06/13 11:33:48;;;;;;;5.20;3.70;;;42.20;34.10;;;;;;4960391;28;20024;-76
2021/06/13 11:36:17;;;;;;;4.53;3.50;;;42.00;34.00;;;;;;4960227;28;20043;-75
2021/06/13 11:38:51;;;;;;;5.88;3.88;;;41.70;35.00;;;;;;4957622;28;20015;-76
2021/06/13 11:41:28;;;;;;;6.15;3.38;;;41.50;35.40;;;;;;4956036;29;20388;-75
2021/06/13 11:43:56;;;;;;;6.72;4.45;;;41.20;33.80;;;;;;4958887;29;20035;-75
2021/06/13 11:46:35;;;;;;;6.97;3.90;;;40.90;34.50;;;;;;4958301;29;20063;-76
2021/06/13 11:49:03;;;;;;;10.60;6.18;;;40.70;35.10;;;;;;4954521;29;20041;-76
2021/06/13 11:51:30;;;;;;;11.20;9.05;;;40.50;34.40;;;;;;4960924;28;20367;-76
2021/06/13 11:54:06;;;;;;;6.85;4.95;;;40.20;35.50;;;;;;4959947;28;20058;-76
2021/06/13 11:59:02;;;;;;;6.55;4.03;;;39.70;36.20;;;;;;4960829;29;20122;-75
2021/06/13 12:01:30;;;;;;;5.43;3.50;;;39.30;34.20;;;;;;4960537;29;20039;-75
2021/06/13 12:03:57;;;;;;;4.85;3.53;;;39.00;34.40;;;;;;4960684;28;20046;-75
2021/06/13 12:06:23;;;;;;;5.35;3.42;;;38.50;34.10;;;;;;4958863;29;20034;-74
2021/06/13 12:08:52;;;;;;;4.60;3.22;;;38.10;34.80;;;;;;4959717;28;20028;-77
2021/06/13 12:11:36;;;;;;;5.15;3.20;;;37.70;35.60;;;;;;4960532;28;20573;-76
2021/06/13 12:14:22;;;;;;;7.32;4.07;;;37.30;35.90;;;;;;4960518;28;20038;-78
2021/06/13 12:16:50;;;;;;;5.97;3.47;;;36.80;35.90;;;;;;4960260;28;20051;-77
2021/06/13 12:19:30;;;;;;;4.95;3.30;;;36.40;36.60;;;;;;4959217;29;20024;-74
2021/06/13 12:22:17;;;;;;;4.30;3.20;;;36.00;37.10;;;;;;4960353;28;20119;-77
2021/06/13 12:27:22;;;;;;;4.72;3.20;;;35.40;37.40;;;;;;4960521;28;20089;-75
2021/06/13 12:29:52;;;;;;;5.50;3.45;;;35.10;37.80;;;;;;4959803;28;20533;-72
2021/06/13 12:32:18;;;;;;;5.00;3.33;;;34.80;36.60;;;;;;4956251;29;20019;-72
2021/06/13 12:34:46;;;;;;;6.00;3.83;;;34.50;37.30;;;;;;4959787;28;20030;-75
2021/06/13 12:37:17;;;;;;;5.60;4.20;;;34.30;38.40;;;;;;4960550;28;20031;-73
2021/06/13 12:39:54;;;;;;;4.85;3.70;;;34.00;37.70;;;;;;4960069;28;20031;-73
2021/06/13 12:42:21;;;;;;;5.43;3.78;;;33.80;39.10;;;;;;4960436;28;20066;-76
2021/06/13 12:44:47;;;;;;;5.47;4.03;;;33.70;38.90;;;;;;4959936;28;20031;-74
2021/06/13 12:47:18;;;;;;;6.15;4.00;;;33.50;38.80;;;;;;4959959;28;20030;-75
2021/06/13 12:49:45;;;;;;;5.25;4.35;;;33.40;38.90;;;;;;4959999;28;20035;-75